createdAt,value
2023-05-12T00:02:10.568Z,16.73
2023-05-12T00:04:41.718Z,18.08
2023-05-12T00:07:13.396Z,19.02
2023-05-12T00:09:44.160Z,16.80
2023-05-12T00:12:14.660Z,15.60
2023-05-12T00:14:45.192Z,16.58
2023-05-12T00:17:15.641Z,16.73
2023-05-12T00:19:46.531Z,15.02
2023-05-12T00:22:18.191Z,13.18
2023-05-12T00:24:49.079Z,13.35
2023-05-12T00:27:19.150Z,15.80
2023-05-12T00:29:49.335Z,15.52
2023-05-12T00:32:19.661Z,13.27
2023-05-12T00:34:51.626Z,14.48
2023-05-12T00:37:22.156Z,16.25
2023-05-12T00:39:52.617Z,16.00
2023-05-12T00:42:23.365Z,19.05
2023-05-12T00:44:53.685Z,16.20
2023-05-12T00:47:24.993Z,17.85
2023-05-12T00:49:55.603Z,19.60
2023-05-12T00:52:25.704Z,20.08
2023-05-12T00:54:56.612Z,20.60
2023-05-12T00:57:29.403Z,18.90
2023-05-12T01:00:00.584Z,20.35
2023-05-12T01:02:33.181Z,20.92
2023-05-12T01:05:05.074Z,23.55
2023-05-12T01:07:35.634Z,27.58
2023-05-12T01:10:10.090Z,26.75
2023-05-12T01:12:40.890Z,27.88
2023-05-12T01:15:12.163Z,29.52
2023-05-12T01:17:46.934Z,31.70
2023-05-12T01:20:19.104Z,29.98
2023-05-12T01:22:51.173Z,24.60
2023-05-12T01:25:24.352Z,26.38
2023-05-12T01:27:55.685Z,25.38
2023-05-12T01:30:26.583Z,24.00
2023-05-12T01:32:57.245Z,25.33
2023-05-12T01:35:27.955Z,26.50
2023-05-12T01:38:03.229Z,24.27
2023-05-12T01:40:36.436Z,23.33
2023-05-12T01:43:07.745Z,21.40
2023-05-12T01:45:40.700Z,20.88
2023-05-12T01:48:13.304Z,20.13
2023-05-12T01:50:44.309Z,19.27
2023-05-12T01:53:19.184Z,19.25
2023-05-12T01:55:52.614Z,23.40
2023-05-12T01:58:24.253Z,28.27
2023-05-12T02:00:55.293Z,30.83
2023-05-12T02:03:27.856Z,30.50
2023-05-12T02:06:00.224Z,26.40
2023-05-12T02:08:30.611Z,25.20
2023-05-12T02:11:08.503Z,27.27
2023-05-12T02:13:39.729Z,31.15
2023-05-12T02:16:11.035Z,32.63
2023-05-12T02:18:41.839Z,32.28
2023-05-12T02:21:12.204Z,27.50
2023-05-12T02:23:43.533Z,26.23
2023-05-12T02:26:14.542Z,24.00
2023-05-12T02:28:45.263Z,18.38
2023-05-12T02:31:16.319Z,18.75
2023-05-12T02:33:46.964Z,15.85
2023-05-12T02:36:18.851Z,21.70
2023-05-12T02:38:50.191Z,18.25
2023-05-12T02:41:20.520Z,24.02
2023-05-12T02:43:51.294Z,23.52
2023-05-12T02:46:22.377Z,18.77
2023-05-12T02:48:52.809Z,19.67
2023-05-12T02:51:23.063Z,19.00
2023-05-12T02:53:54.323Z,20.52
2023-05-12T02:56:24.996Z,19.08
2023-05-12T02:58:57.220Z,21.73
2023-05-12T03:01:27.530Z,23.33
2023-05-12T03:03:58.710Z,19.30
2023-05-12T03:06:29.770Z,22.58
2023-05-12T03:09:01.234Z,24.42
2023-05-12T03:11:31.799Z,25.58
2023-05-12T03:14:02.540Z,24.45
2023-05-12T03:16:35.989Z,23.25
2023-05-12T03:19:06.959Z,24.33
2023-05-12T03:21:37.907Z,23.77
2023-05-12T03:24:09.056Z,24.25
2023-05-12T03:26:39.992Z,22.05
2023-05-12T03:29:11.311Z,24.23
2023-05-12T03:31:42.066Z,24.70
2023-05-12T03:34:13.137Z,25.63
2023-05-12T03:36:44.582Z,33.58
2023-05-12T03:39:14.852Z,27.90
2023-05-12T03:41:45.620Z,27.00
2023-05-12T03:44:18.939Z,28.13
2023-05-12T03:46:49.083Z,28.80
2023-05-12T03:49:19.371Z,25.52
2023-05-12T03:51:49.858Z,26.20
2023-05-12T03:54:22.283Z,24.15
2023-05-12T03:56:54.802Z,26.20
2023-05-12T03:59:25.862Z,27.02
2023-05-12T04:01:56.085Z,24.98
2023-05-12T04:04:27.879Z,28.67
2023-05-12T04:06:58.821Z,28.10
2023-05-12T04:09:29.211Z,30.20
2023-05-12T04:12:00.378Z,28.73
2023-05-12T04:14:41.619Z,29.67
2023-05-12T04:17:15.763Z,29.73
2023-05-12T04:19:46.897Z,28.02
2023-05-12T04:22:17.179Z,28.77
2023-05-12T04:24:47.376Z,29.50
2023-05-12T04:27:18.428Z,30.17
2023-05-12T04:29:49.414Z,28.42
2023-05-12T04:32:20.486Z,33.88
2023-05-12T04:34:51.277Z,28.95
2023-05-12T04:37:23.899Z,32.38
2023-05-12T04:39:58.584Z,32.47
2023-05-12T04:42:30.343Z,31.65
2023-05-12T04:45:00.852Z,30.63
2023-05-12T04:47:31.922Z,30.92
2023-05-12T04:50:05.589Z,29.30
2023-05-12T04:52:36.569Z,31.70
2023-05-12T04:55:08.807Z,28.50
2023-05-12T04:57:39.245Z,27.75
2023-05-12T05:00:10.192Z,32.05
2023-05-12T05:02:42.526Z,26.50
2023-05-12T05:05:13.166Z,27.35
2023-05-12T05:07:44.368Z,25.95
2023-05-12T05:10:14.453Z,23.98
2023-05-12T05:12:46.978Z,23.85
2023-05-12T05:15:17.640Z,21.73
2023-05-12T05:17:50.919Z,20.17
2023-05-12T05:20:27.661Z,17.38
2023-05-12T05:23:03.456Z,10.23
2023-05-12T05:25:34.601Z,9.00
2023-05-12T05:28:05.949Z,9.75
2023-05-12T05:30:37.949Z,12.68
2023-05-12T05:33:09.699Z,9.88
2023-05-12T05:35:39.950Z,9.70
2023-05-12T05:38:11.374Z,17.15
2023-05-12T05:40:53.191Z,21.85
2023-05-12T05:43:25.958Z,20.60
2023-05-12T05:45:59.218Z,20.13
2023-05-12T05:48:29.415Z,18.08
2023-05-12T05:51:02.975Z,10.80
2023-05-12T05:53:33.980Z,10.10
2023-05-12T05:56:04.460Z,11.02
2023-05-12T05:58:34.977Z,10.50
2023-05-12T06:01:07.978Z,6.78
2023-05-12T06:03:39.577Z,4.70
2023-05-12T06:06:09.894Z,5.85
2023-05-12T06:08:41.144Z,4.40
2023-05-12T06:11:11.973Z,3.90
2023-05-12T06:13:42.923Z,3.33
2023-05-12T06:16:13.727Z,4.38
2023-05-12T06:18:48.723Z,4.55
2023-05-12T06:21:18.954Z,4.03
2023-05-12T06:23:49.904Z,4.28
2023-05-12T06:26:20.742Z,3.50
2023-05-12T06:28:52.022Z,4.15
2023-05-12T06:31:23.047Z,10.27
2023-05-12T06:33:53.660Z,8.77
2023-05-12T06:36:24.487Z,7.82
2023-05-12T06:38:55.147Z,6.78
2023-05-12T06:41:26.300Z,4.20
2023-05-12T06:43:56.964Z,3.97
2023-05-12T06:46:30.553Z,4.30
2023-05-12T06:49:01.599Z,4.30
2023-05-12T06:51:32.042Z,4.65
2023-05-12T06:54:03.489Z,4.72
2023-05-12T06:56:33.819Z,4.05
2023-05-12T06:59:05.270Z,4.00
2023-05-12T07:01:36.568Z,4.45
2023-05-12T07:04:10.641Z,7.30
2023-05-12T07:06:45.022Z,6.28
2023-05-12T07:09:15.714Z,6.20
2023-05-12T07:11:46.027Z,5.05
2023-05-12T07:14:16.597Z,4.60
2023-05-12T07:16:48.034Z,4.68
2023-05-12T07:19:18.048Z,4.90
2023-05-12T07:21:48.559Z,3.50
2023-05-12T07:24:19.243Z,3.28
2023-05-12T07:26:50.604Z,4.88
2023-05-12T07:29:21.581Z,3.83
2023-05-12T07:31:53.013Z,3.00
2023-05-12T07:34:27.060Z,2.65
2023-05-12T07:36:57.011Z,2.40
2023-05-12T07:39:27.984Z,3.08
2023-05-12T07:41:59.575Z,3.08
2023-05-12T07:44:30.109Z,3.72
2023-05-12T07:47:01.002Z,2.40
2023-05-12T07:49:32.332Z,2.60
2023-05-12T07:52:03.127Z,1.95
2023-05-12T07:54:35.703Z,2.30
2023-05-12T07:57:06.101Z,2.95
2023-05-12T07:59:36.540Z,2.63
2023-05-12T08:02:08.131Z,2.92
2023-05-12T08:04:39.665Z,2.28
2023-05-12T08:07:10.121Z,3.05
2023-05-12T08:09:40.083Z,2.88
2023-05-12T08:12:10.351Z,3.40
2023-05-12T08:14:41.072Z,2.85
2023-05-12T08:17:12.084Z,3.13
2023-05-12T08:19:43.605Z,3.60
2023-05-12T08:22:13.691Z,3.72
2023-05-12T08:24:44.584Z,4.85
2023-05-12T08:27:16.104Z,2.75
2023-05-12T08:29:46.081Z,3.28
2023-05-12T08:32:18.641Z,2.80
2023-05-12T08:34:49.620Z,3.78
2023-05-12T08:37:20.214Z,3.47
2023-05-12T08:39:50.905Z,3.90
2023-05-12T08:42:42.003Z,3.20
2023-05-12T08:45:12.664Z,2.83
2023-05-12T08:47:44.894Z,2.75
2023-05-12T08:50:15.967Z,2.90
2023-05-12T08:52:47.108Z,2.92
2023-05-12T08:55:18.590Z,8.35
2023-05-12T08:57:49.590Z,3.03
2023-05-12T09:00:24.512Z,4.32
2023-05-12T09:02:56.157Z,3.70
2023-05-12T09:05:28.706Z,3.80
2023-05-12T09:08:02.651Z,3.13
2023-05-12T09:10:35.600Z,2.88
2023-05-12T09:13:22.017Z,3.03
2023-05-12T09:15:55.192Z,3.97
2023-05-12T09:18:25.597Z,3.38
2023-05-12T09:20:56.167Z,3.08
2023-05-12T09:23:27.419Z,3.15
2023-05-12T09:26:05.191Z,2.88
2023-05-12T09:28:41.743Z,5.38
2023-05-12T09:31:22.196Z,3.63
2023-05-12T09:33:53.403Z,3.47
2023-05-12T09:36:24.666Z,4.53
2023-05-12T09:39:02.852Z,2.97
2023-05-12T09:41:37.744Z,3.60
2023-05-12T09:44:09.632Z,3.70
2023-05-12T09:46:41.154Z,4.22
2023-05-12T09:49:11.674Z,6.18
2023-05-12T09:51:43.225Z,4.00
2023-05-12T09:54:13.388Z,4.50
2023-05-12T09:56:44.352Z,5.03
2023-05-12T09:59:18.131Z,4.25
2023-05-12T10:01:48.879Z,5.55
2023-05-12T10:04:19.987Z,6.57
2023-05-12T10:06:51.201Z,5.70
2023-05-12T10:09:22.812Z,4.90
2023-05-12T10:11:54.110Z,4.50
2023-05-12T10:14:27.012Z,5.80
2023-05-12T10:16:58.478Z,5.88
2023-05-12T10:19:30.392Z,7.00
2023-05-12T10:22:01.388Z,7.35
2023-05-12T10:24:32.210Z,4.88
2023-05-12T10:27:04.229Z,5.20
2023-05-12T10:29:35.145Z,5.07
2023-05-12T10:32:07.490Z,7.70
2023-05-12T10:34:38.934Z,5.72
2023-05-12T10:37:12.078Z,4.63
2023-05-12T10:39:50.256Z,4.05
2023-05-12T10:42:26.914Z,4.43
2023-05-12T10:44:58.009Z,6.22
2023-05-12T10:47:41.113Z,5.20
2023-05-12T10:50:14.851Z,5.45
2023-05-12T10:52:58.969Z,5.47
2023-05-12T10:55:37.167Z,4.10
2023-05-12T10:58:09.584Z,5.75
2023-05-12T11:00:48.846Z,4.93
2023-05-12T11:03:25.740Z,5.28
2023-05-12T11:06:02.501Z,5.45
2023-05-12T11:08:36.195Z,6.88
2023-05-12T11:11:08.925Z,6.85
2023-05-12T11:13:39.538Z,5.97
2023-05-12T11:16:16.854Z,7.88
2023-05-12T11:18:48.036Z,9.52
2023-05-12T11:21:19.721Z,8.80
2023-05-12T11:23:52.517Z,8.10
2023-05-12T11:26:23.565Z,7.57
2023-05-12T11:28:53.810Z,6.47
2023-05-12T11:31:24.730Z,6.85
2023-05-12T11:34:12.075Z,6.97
2023-05-12T11:36:44.235Z,15.63
2023-05-12T11:39:18.297Z,9.07
2023-05-12T11:41:51.386Z,14.90
2023-05-12T11:44:26.224Z,29.08
2023-05-12T11:47:13.734Z,15.38
2023-05-12T11:49:51.525Z,15.00
2023-05-12T11:52:23.073Z,18.73
2023-05-12T11:54:55.350Z,17.10
2023-05-12T11:57:27.314Z,14.02
2023-05-12T12:00:05.779Z,14.15
2023-05-12T12:02:37.807Z,14.65
2023-05-12T12:05:19.084Z,13.40
2023-05-12T12:07:50.328Z,12.52
2023-05-12T12:10:21.330Z,25.35
2023-05-12T12:12:53.129Z,18.17
2023-05-12T12:15:23.187Z,19.33
2023-05-12T12:17:53.330Z,18.13
2023-05-12T12:20:26.018Z,17.70
2023-05-12T12:22:57.333Z,15.57
2023-05-12T12:25:28.132Z,15.25
2023-05-12T12:27:58.287Z,15.73
2023-05-12T12:30:29.096Z,15.52
2023-05-12T12:32:58.937Z,15.45
2023-05-12T12:35:29.164Z,12.80
2023-05-12T12:37:59.828Z,9.57
2023-05-12T12:40:29.564Z,7.93
2023-05-12T12:42:59.975Z,7.93
2023-05-12T12:45:29.840Z,7.82
2023-05-12T12:48:00.871Z,8.73
2023-05-12T12:50:34.585Z,8.68
2023-05-12T12:53:05.368Z,7.97
2023-05-12T12:55:37.599Z,7.35
2023-05-12T12:58:08.002Z,8.32
2023-05-12T13:00:39.057Z,9.32
2023-05-12T13:03:09.470Z,10.02
2023-05-12T13:05:40.312Z,9.63
2023-05-12T13:08:10.370Z,10.02
2023-05-12T13:10:42.920Z,10.73
2023-05-12T13:13:13.393Z,10.80
2023-05-12T13:15:44.250Z,10.20
2023-05-12T13:18:15.299Z,12.02
2023-05-12T13:20:46.084Z,12.25
2023-05-12T13:23:16.459Z,12.98
2023-05-12T13:25:47.852Z,13.27
2023-05-12T13:28:19.313Z,13.18
2023-05-12T13:30:52.884Z,12.95
2023-05-12T13:33:23.837Z,12.68
2023-05-12T13:35:54.118Z,12.10
2023-05-12T13:38:24.926Z,13.40
2023-05-12T13:40:56.659Z,11.23
2023-05-12T13:43:27.323Z,11.95
2023-05-12T13:45:57.951Z,11.30
2023-05-12T13:48:28.257Z,12.00
2023-05-12T13:51:04.097Z,11.77
2023-05-12T13:53:36.367Z,13.65
2023-05-12T13:56:17.973Z,13.25
2023-05-12T13:58:48.391Z,11.98
2023-05-12T14:01:19.017Z,10.93
2023-05-12T14:03:55.154Z,9.90
2023-05-12T14:06:25.428Z,10.32
2023-05-12T14:08:56.307Z,10.18
2023-05-12T14:11:26.396Z,9.38
2023-05-12T14:13:57.411Z,10.18
2023-05-12T14:16:29.661Z,11.98
2023-05-12T14:19:01.400Z,9.25
2023-05-12T14:21:32.483Z,7.95
2023-05-12T14:24:05.954Z,8.43
2023-05-12T14:26:37.168Z,7.20
2023-05-12T14:29:08.861Z,7.47
2023-05-12T14:31:39.949Z,7.47
2023-05-12T14:34:10.463Z,6.80
2023-05-12T14:36:40.942Z,6.82
2023-05-12T14:39:11.691Z,6.60
2023-05-12T14:41:41.963Z,6.55
2023-05-12T14:44:12.887Z,6.43
2023-05-12T14:46:46.463Z,6.55
2023-05-12T14:49:19.627Z,5.93
2023-05-12T14:51:50.853Z,5.55
2023-05-12T14:54:25.773Z,6.10
2023-05-12T14:56:55.890Z,6.28
2023-05-12T14:59:26.770Z,5.75
2023-05-12T15:01:57.501Z,6.30
2023-05-12T15:04:30.507Z,5.93
2023-05-12T15:07:01.398Z,5.55
2023-05-12T15:09:32.948Z,6.88
2023-05-12T15:12:05.019Z,6.50
2023-05-12T15:14:35.656Z,7.20
2023-05-12T15:17:06.256Z,6.07
2023-05-12T15:19:37.166Z,6.45
2023-05-12T15:22:08.715Z,6.47
2023-05-12T15:24:39.460Z,6.82
2023-05-12T15:27:10.250Z,6.72
2023-05-12T15:29:41.414Z,7.20
2023-05-12T15:32:11.974Z,7.18
2023-05-12T15:34:42.947Z,6.88
2023-05-12T15:37:12.989Z,7.22
2023-05-12T15:39:44.473Z,6.80
2023-05-12T15:42:16.711Z,7.00
2023-05-12T15:44:50.369Z,6.30
2023-05-12T15:47:20.469Z,6.50
2023-05-12T15:49:50.894Z,6.40
2023-05-12T15:52:21.160Z,6.88
2023-05-12T15:54:51.520Z,6.30
2023-05-12T15:57:23.152Z,6.88
2023-05-12T15:59:58.235Z,7.50
2023-05-12T16:02:29.012Z,6.88
2023-05-12T16:04:59.967Z,7.70
2023-05-12T16:07:33.467Z,8.40
2023-05-12T16:10:05.056Z,11.07
2023-05-12T16:12:38.057Z,12.60
2023-05-12T16:15:09.668Z,16.27
2023-05-12T16:17:40.112Z,17.10
2023-05-12T16:20:12.005Z,15.15
2023-05-12T16:22:43.342Z,14.75
2023-05-12T16:25:13.793Z,13.50
2023-05-12T16:27:44.535Z,13.98
2023-05-12T16:30:15.791Z,13.45
2023-05-12T16:32:49.670Z,13.55
2023-05-12T16:35:20.878Z,12.95
2023-05-12T16:37:52.086Z,12.98
2023-05-12T16:40:22.890Z,13.30
2023-05-12T16:42:53.838Z,13.98
2023-05-12T16:45:25.551Z,12.73
2023-05-12T16:47:55.783Z,13.38
2023-05-12T16:50:26.684Z,14.05
2023-05-12T16:52:57.459Z,15.20
2023-05-12T16:55:28.332Z,14.45
2023-05-12T16:57:59.066Z,14.63
2023-05-12T17:00:30.112Z,14.70
2023-05-12T17:03:01.394Z,14.93
2023-05-12T17:05:33.077Z,13.15
2023-05-12T17:08:04.189Z,13.30
2023-05-12T17:10:34.783Z,13.80
2023-05-12T17:13:05.765Z,13.13
2023-05-12T17:15:38.737Z,13.07
2023-05-12T17:18:09.112Z,12.60
2023-05-12T17:20:40.662Z,12.00
2023-05-12T17:23:10.880Z,12.30
2023-05-12T17:25:42.110Z,11.75
2023-05-12T17:28:12.636Z,11.38
2023-05-12T17:30:44.134Z,12.23
2023-05-12T17:33:16.591Z,11.88
2023-05-12T17:35:54.088Z,12.10
2023-05-12T17:38:30.130Z,11.57
2023-05-12T17:41:00.130Z,10.93
2023-05-12T17:43:33.109Z,12.70
2023-05-12T17:46:04.136Z,13.05
2023-05-12T17:48:35.506Z,11.95
2023-05-12T17:51:06.151Z,12.38
2023-05-12T17:53:36.625Z,15.93
2023-05-12T17:56:09.371Z,16.77
2023-05-12T17:58:39.913Z,17.08
2023-05-12T18:01:10.882Z,19.83
2023-05-12T18:03:41.583Z,18.42
2023-05-12T18:06:13.825Z,18.05
2023-05-12T18:08:44.667Z,14.48
2023-05-12T18:11:15.613Z,13.98
2023-05-12T18:13:46.203Z,12.05
2023-05-12T18:16:25.211Z,11.48
2023-05-12T18:18:59.695Z,10.98
2023-05-12T18:21:30.146Z,10.93
2023-05-12T18:24:01.002Z,10.75
2023-05-12T18:26:31.197Z,10.65
2023-05-12T18:29:05.124Z,11.30
2023-05-12T18:31:37.268Z,9.43
2023-05-12T18:34:07.682Z,9.75
2023-05-12T18:36:39.085Z,9.27
2023-05-12T18:39:11.686Z,8.63
2023-05-12T18:41:41.684Z,9.25
2023-05-12T18:44:12.027Z,9.43
2023-05-12T18:46:42.648Z,9.50
2023-05-12T18:49:12.849Z,9.40
2023-05-12T18:51:44.432Z,9.05
2023-05-12T18:54:14.915Z,9.70
2023-05-12T18:56:45.195Z,9.63
2023-05-12T18:59:15.666Z,8.60
2023-05-12T19:01:46.182Z,8.80
2023-05-12T19:04:16.977Z,9.63
2023-05-12T19:06:47.613Z,9.65
2023-05-12T19:09:21.215Z,9.82
2023-05-12T19:11:51.903Z,10.77
2023-05-12T19:14:22.438Z,10.88
2023-05-12T19:16:52.701Z,11.00
2023-05-12T19:19:23.721Z,10.98
2023-05-12T19:21:53.702Z,10.65
2023-05-12T19:24:26.181Z,11.95
2023-05-12T19:26:56.777Z,11.25
2023-05-12T19:29:27.966Z,11.15
2023-05-12T19:31:58.778Z,10.93
2023-05-12T19:34:30.772Z,10.80
2023-05-12T19:37:03.942Z,10.68
2023-05-12T19:39:34.274Z,10.73
2023-05-12T19:42:04.254Z,11.18
2023-05-12T19:44:34.745Z,10.43
2023-05-12T19:47:09.793Z,9.85
2023-05-12T19:49:40.477Z,9.90
2023-05-12T19:52:10.728Z,10.40
2023-05-12T19:54:41.612Z,10.40
2023-05-12T19:57:11.701Z,10.10
2023-05-12T19:59:41.749Z,9.38
2023-05-12T20:02:15.046Z,9.85
2023-05-12T20:04:45.759Z,8.90
2023-05-12T20:07:15.802Z,9.18
2023-05-12T20:09:48.995Z,9.00
2023-05-12T20:12:19.471Z,9.82
2023-05-12T20:14:49.756Z,10.15
2023-05-12T20:17:20.838Z,10.15
2023-05-12T20:19:50.952Z,9.95
2023-05-12T20:22:22.528Z,9.13
2023-05-12T20:24:53.310Z,8.40
2023-05-12T20:27:24.139Z,9.00
2023-05-12T20:29:54.939Z,9.32
2023-05-12T20:32:25.295Z,8.43
2023-05-12T20:34:56.298Z,8.73
2023-05-12T20:37:26.323Z,8.70
2023-05-12T20:39:56.824Z,8.95
2023-05-12T20:42:27.102Z,9.38
2023-05-12T20:44:57.802Z,9.20
2023-05-12T20:47:28.915Z,9.38
2023-05-12T20:49:59.760Z,9.27
2023-05-12T20:52:30.494Z,10.13
2023-05-12T20:55:01.315Z,9.57
2023-05-12T20:57:32.254Z,9.63
2023-05-12T21:00:03.572Z,9.88
2023-05-12T21:02:34.890Z,10.05
2023-05-12T21:05:05.710Z,10.10
2023-05-12T21:07:36.063Z,10.43
2023-05-12T21:10:07.343Z,11.48
2023-05-12T21:12:38.651Z,11.02
2023-05-12T21:15:11.542Z,11.82
2023-05-12T21:17:43.367Z,10.88
2023-05-12T21:20:13.768Z,12.07
2023-05-12T21:22:44.329Z,12.25
2023-05-12T21:25:15.333Z,12.85
2023-05-12T21:27:45.349Z,12.98
2023-05-12T21:30:15.921Z,12.27
2023-05-12T21:32:46.504Z,11.50
2023-05-12T21:35:17.811Z,11.48
2023-05-12T21:37:50.579Z,12.35
2023-05-12T21:40:20.996Z,15.55
2023-05-12T21:42:51.264Z,25.13
2023-05-12T21:45:22.622Z,24.70
2023-05-12T21:47:53.479Z,23.40
2023-05-12T21:50:23.799Z,24.25
2023-05-12T21:52:54.048Z,25.70
2023-05-12T21:55:24.888Z,26.27
2023-05-12T21:57:55.360Z,27.00
2023-05-12T22:00:25.748Z,24.25
2023-05-12T22:02:56.330Z,24.38
2023-05-12T22:05:26.844Z,23.33
2023-05-12T22:07:58.326Z,23.20
2023-05-12T22:10:31.469Z,22.92
2023-05-12T22:13:01.896Z,22.52
2023-05-12T22:15:35.935Z,20.55
2023-05-12T22:18:08.328Z,21.65
2023-05-12T22:20:38.995Z,22.13
2023-05-12T22:23:09.367Z,21.77
2023-05-12T22:25:39.906Z,21.50
2023-05-12T22:28:10.531Z,20.40
2023-05-12T22:30:42.642Z,20.95
2023-05-12T22:33:14.402Z,18.75
2023-05-12T22:35:44.626Z,18.85
2023-05-12T22:38:16.189Z,19.77
2023-05-12T22:40:46.386Z,19.60
2023-05-12T22:43:16.868Z,18.98
2023-05-12T22:45:51.695Z,18.25
2023-05-12T22:48:24.358Z,17.35
2023-05-12T22:50:57.352Z,17.20
2023-05-12T22:53:27.841Z,18.17
2023-05-12T22:55:58.416Z,16.83
2023-05-12T22:58:29.357Z,17.90
2023-05-12T23:00:59.955Z,16.58
2023-05-12T23:03:30.447Z,17.75
2023-05-12T23:06:00.386Z,17.63
2023-05-12T23:08:31.375Z,18.23
2023-05-12T23:11:01.891Z,15.00
2023-05-12T23:13:33.453Z,18.23
2023-05-12T23:16:03.442Z,16.10
2023-05-12T23:18:33.880Z,18.27
2023-05-12T23:21:04.346Z,18.95
2023-05-12T23:23:34.903Z,17.67
2023-05-12T23:26:05.925Z,16.90
2023-05-12T23:28:35.934Z,17.02
2023-05-12T23:31:06.368Z,17.10
2023-05-12T23:33:37.090Z,15.70
2023-05-12T23:36:08.692Z,14.98
2023-05-12T23:38:38.911Z,18.40
2023-05-12T23:41:09.504Z,14.90
2023-05-12T23:43:40.153Z,15.65
2023-05-12T23:46:10.508Z,15.32
2023-05-12T23:48:41.449Z,16.10
2023-05-12T23:51:12.493Z,27.10
2023-05-12T23:53:43.878Z,17.00
2023-05-12T23:56:13.969Z,17.15
2023-05-12T23:58:44.476Z,17.80
